createdAt,value
2023-02-14T00:00:49.277Z,8.05
2023-02-14T00:01:49.927Z,8.08
2023-02-14T00:02:50.748Z,8.07
2023-02-14T00:03:51.446Z,8.07
2023-02-14T00:04:52.383Z,8.07
2023-02-14T00:05:53.027Z,8.08
2023-02-14T00:06:53.738Z,8.08
2023-02-14T00:07:54.445Z,8.10
2023-02-14T00:08:55.161Z,8.08
2023-02-14T00:09:55.853Z,8.12
2023-02-14T00:10:56.982Z,8.16
2023-02-14T00:11:57.269Z,8.15
2023-02-14T00:12:57.981Z,8.16
2023-02-14T00:13:58.684Z,8.19
2023-02-14T00:14:59.404Z,8.20
2023-02-14T00:16:00.276Z,8.20
2023-02-14T00:17:00.935Z,8.20
2023-02-14T00:18:01.641Z,8.18
2023-02-14T00:19:02.361Z,8.15
2023-02-14T00:20:03.046Z,8.08
2023-02-14T00:21:03.742Z,8.08
2023-02-14T00:22:04.445Z,8.05
2023-02-14T00:23:05.173Z,8.07
2023-02-14T00:24:05.889Z,8.02
2023-02-14T00:25:06.576Z,8.01
2023-02-14T00:26:07.281Z,7.98
2023-02-14T00:27:07.982Z,7.98
2023-02-14T00:28:09.064Z,7.92
2023-02-14T00:29:09.279Z,7.92
2023-02-14T00:30:10.034Z,7.89
2023-02-14T00:31:10.903Z,7.89
2023-02-14T00:32:11.728Z,7.87
2023-02-14T00:33:12.422Z,7.89
2023-02-14T00:34:13.164Z,7.90
2023-02-14T00:35:13.828Z,7.89
2023-02-14T00:36:14.533Z,7.85
2023-02-14T00:37:15.244Z,7.80
2023-02-14T00:38:15.945Z,7.75
2023-02-14T00:39:16.651Z,7.74
2023-02-14T00:40:17.354Z,7.69
2023-02-14T00:41:18.072Z,7.69
2023-02-14T00:42:18.787Z,7.67
2023-02-14T00:43:19.575Z,7.63
2023-02-14T00:44:20.277Z,7.61
2023-02-14T00:45:20.981Z,7.60
2023-02-14T00:46:21.701Z,7.61
2023-02-14T00:47:22.348Z,7.61
2023-02-14T00:48:23.056Z,7.64
2023-02-14T00:49:23.789Z,7.63
2023-02-14T00:50:24.466Z,7.61
2023-02-14T00:51:25.172Z,7.58
2023-02-14T00:52:25.874Z,7.55
2023-02-14T00:53:27.076Z,7.53
2023-02-14T00:54:27.280Z,7.52
2023-02-14T00:55:27.986Z,7.48
2023-02-14T00:56:28.688Z,7.46
2023-02-14T00:57:29.402Z,7.42
2023-02-14T00:58:30.109Z,7.40
2023-02-14T00:59:30.810Z,7.37
2023-02-14T01:00:31.532Z,7.37
2023-02-14T01:01:32.244Z,7.35
2023-02-14T01:02:32.992Z,7.35
2023-02-14T01:03:34.071Z,7.34
2023-02-14T01:04:34.336Z,7.31
2023-02-14T01:05:34.994Z,7.28
2023-02-14T01:06:35.692Z,7.25
2023-02-14T01:07:36.396Z,7.24
2023-02-14T01:08:37.115Z,7.21
2023-02-14T01:09:37.812Z,7.17
2023-02-14T01:10:38.518Z,7.16
2023-02-14T01:11:39.235Z,7.15
2023-02-14T01:12:39.923Z,7.15
2023-02-14T01:13:41.074Z,7.20
2023-02-14T01:14:41.272Z,7.15
2023-02-14T01:15:41.983Z,7.13
2023-02-14T01:16:42.780Z,7.13
2023-02-14T01:17:43.438Z,7.10
2023-02-14T01:18:44.143Z,7.03
2023-02-14T01:19:44.870Z,7.05
2023-02-14T01:20:45.548Z,6.99
2023-02-14T01:21:46.250Z,7.03
2023-02-14T01:22:46.953Z,7.05
2023-02-14T01:23:47.672Z,7.07
2023-02-14T01:24:48.374Z,7.07
2023-02-14T01:25:49.080Z,7.10
2023-02-14T01:26:49.780Z,7.15
2023-02-14T01:27:50.485Z,7.16
2023-02-14T01:28:51.204Z,7.21
2023-02-14T01:29:51.946Z,7.21
2023-02-14T01:30:52.629Z,7.23
2023-02-14T01:31:53.378Z,7.24
2023-02-14T01:32:54.008Z,7.24
2023-02-14T01:33:54.733Z,7.21
2023-02-14T01:34:55.465Z,7.20
2023-02-14T01:35:56.147Z,7.20
2023-02-14T01:36:56.849Z,7.20
2023-02-14T01:37:57.557Z,7.17
2023-02-14T01:38:58.273Z,7.16
2023-02-14T01:39:58.980Z,7.10
2023-02-14T01:40:59.984Z,7.07
2023-02-14T01:42:00.306Z,7.03
2023-02-14T01:43:01.010Z,6.99
2023-02-14T01:44:01.734Z,6.95
2023-02-14T01:45:02.438Z,6.88
2023-02-14T01:46:03.187Z,6.85
2023-02-14T01:47:03.865Z,6.81
2023-02-14T01:48:04.509Z,6.77
2023-02-14T01:49:05.229Z,6.73
2023-02-14T01:50:05.958Z,6.70
2023-02-14T01:51:06.640Z,6.67
2023-02-14T01:52:07.363Z,6.67
2023-02-14T01:53:08.582Z,6.69
2023-02-14T01:54:08.811Z,6.69
2023-02-14T01:55:09.545Z,6.69
2023-02-14T01:56:10.242Z,6.64
2023-02-14T01:57:10.943Z,6.62
2023-02-14T01:58:11.649Z,6.59
2023-02-14T01:59:12.358Z,6.62
2023-02-14T02:00:13.067Z,6.64
2023-02-14T02:01:13.840Z,6.69
2023-02-14T02:02:14.561Z,6.71
2023-02-14T02:03:15.223Z,6.73
2023-02-14T02:04:15.939Z,6.77
2023-02-14T02:05:16.665Z,6.79
2023-02-14T02:06:17.352Z,6.79
2023-02-14T02:07:18.065Z,6.79
2023-02-14T02:08:18.770Z,6.79
2023-02-14T02:09:19.486Z,6.80
2023-02-14T02:10:20.190Z,6.80
2023-02-14T02:11:20.896Z,6.79
2023-02-14T02:12:21.595Z,6.77
2023-02-14T02:13:22.303Z,6.77
2023-02-14T02:14:23.025Z,6.76
2023-02-14T02:15:23.735Z,6.73
2023-02-14T02:16:24.492Z,6.69
2023-02-14T02:17:25.142Z,6.71
2023-02-14T02:18:25.773Z,6.71
2023-02-14T02:19:26.485Z,6.73
2023-02-14T02:20:27.239Z,6.76
2023-02-14T02:21:27.913Z,6.76
2023-02-14T02:22:28.610Z,6.76
2023-02-14T02:23:29.314Z,6.77
2023-02-14T02:24:30.037Z,6.74
2023-02-14T02:25:30.741Z,6.81
2023-02-14T02:26:31.444Z,6.85
2023-02-14T02:27:32.156Z,6.81
2023-02-14T02:28:32.866Z,6.81
2023-02-14T02:29:33.573Z,6.84
2023-02-14T02:30:34.559Z,6.85
2023-02-14T02:31:34.964Z,6.89
2023-02-14T02:32:35.684Z,6.89
2023-02-14T02:33:36.327Z,6.85
2023-02-14T02:34:37.055Z,6.84
2023-02-14T02:35:37.789Z,6.81
2023-02-14T02:36:38.478Z,6.79
2023-02-14T02:37:39.183Z,6.74
2023-02-14T02:38:39.890Z,6.73
2023-02-14T02:39:41.083Z,6.70
2023-02-14T02:40:41.284Z,6.66
2023-02-14T02:41:41.991Z,6.64
2023-02-14T02:42:42.698Z,6.61
2023-02-14T02:43:43.402Z,6.59
2023-02-14T02:44:44.110Z,6.58
2023-02-14T02:45:44.871Z,6.55
2023-02-14T02:46:45.520Z,6.52
2023-02-14T02:47:46.244Z,6.46
2023-02-14T02:48:46.897Z,6.43
2023-02-14T02:49:48.081Z,6.40
2023-02-14T02:50:48.306Z,6.40
2023-02-14T02:51:48.988Z,6.37
2023-02-14T02:52:49.694Z,6.34
2023-02-14T02:53:50.402Z,6.33
2023-02-14T02:54:51.594Z,6.33
2023-02-14T02:55:51.805Z,6.31
2023-02-14T02:56:52.508Z,6.31
2023-02-14T02:57:53.220Z,6.34
2023-02-14T02:58:53.930Z,6.33
2023-02-14T02:59:54.648Z,6.33
2023-02-14T03:00:55.341Z,6.33
2023-02-14T03:01:56.042Z,6.33
2023-02-14T03:02:56.768Z,6.31
2023-02-14T03:03:57.394Z,6.34
2023-02-14T03:04:58.150Z,6.36
2023-02-14T03:05:58.841Z,6.37
2023-02-14T03:06:59.542Z,6.37
2023-02-14T03:08:00.236Z,6.38
2023-02-14T03:09:00.966Z,6.37
2023-02-14T03:10:01.716Z,6.40
2023-02-14T03:11:02.532Z,6.40
2023-02-14T03:12:03.222Z,6.38
2023-02-14T03:13:03.919Z,6.43
2023-02-14T03:14:04.626Z,6.49
2023-02-14T03:15:05.337Z,6.49
2023-02-14T03:16:06.055Z,6.46
2023-02-14T03:17:06.748Z,6.44
2023-02-14T03:18:07.478Z,6.44
2023-02-14T03:19:08.107Z,6.43
2023-02-14T03:20:08.824Z,6.44
2023-02-14T03:21:09.591Z,6.44
2023-02-14T03:22:10.238Z,6.41
2023-02-14T03:23:10.964Z,6.40
2023-02-14T03:24:11.664Z,6.41
2023-02-14T03:25:12.370Z,6.41
2023-02-14T03:26:13.074Z,6.41
2023-02-14T03:27:13.782Z,6.41
2023-02-14T03:28:14.484Z,6.40
2023-02-14T03:29:15.192Z,6.40
2023-02-14T03:30:15.967Z,6.37
2023-02-14T03:31:16.733Z,6.37
2023-02-14T03:32:17.604Z,6.40
2023-02-14T03:33:18.377Z,6.40
2023-02-14T03:34:18.999Z,6.38
2023-02-14T03:35:20.100Z,6.38
2023-02-14T03:36:20.325Z,6.36
2023-02-14T03:37:21.017Z,6.40
2023-02-14T03:38:21.722Z,6.38
2023-02-14T03:39:22.444Z,6.37
2023-02-14T03:40:23.602Z,6.34
2023-02-14T03:41:23.807Z,6.34
2023-02-14T03:42:24.505Z,6.37
2023-02-14T03:43:25.212Z,6.37
2023-02-14T03:44:25.917Z,6.36
2023-02-14T03:45:26.709Z,6.38
2023-02-14T03:46:27.373Z,6.40
2023-02-14T03:47:28.059Z,6.46
2023-02-14T03:48:28.781Z,6.51
2023-02-14T03:49:29.469Z,6.52
2023-02-14T03:50:30.614Z,6.55
2023-02-14T03:51:30.821Z,6.52
2023-02-14T03:52:31.511Z,6.52
2023-02-14T03:53:32.215Z,6.52
2023-02-14T03:54:32.919Z,6.55
2023-02-14T03:55:33.648Z,6.61
2023-02-14T03:56:34.365Z,6.66
2023-02-14T03:57:35.078Z,6.67
2023-02-14T03:58:35.818Z,6.70
2023-02-14T03:59:36.522Z,6.71
2023-02-14T04:00:37.588Z,6.71
2023-02-14T04:01:37.838Z,6.71
2023-02-14T04:02:38.495Z,6.69
2023-02-14T04:03:39.300Z,6.71
2023-02-14T04:04:39.956Z,6.73
2023-02-14T04:05:41.085Z,6.73
2023-02-14T04:06:41.325Z,6.71
2023-02-14T04:07:41.998Z,6.73
2023-02-14T04:08:42.700Z,6.71
2023-02-14T04:09:43.401Z,6.74
2023-02-14T04:10:44.117Z,6.73
2023-02-14T04:11:44.819Z,6.71
2023-02-14T04:12:45.528Z,6.71
2023-02-14T04:13:46.229Z,6.71
2023-02-14T04:14:46.941Z,6.69
2023-02-14T04:15:47.770Z,6.66
2023-02-14T04:16:48.439Z,6.67
2023-02-14T04:17:49.151Z,6.66
2023-02-14T04:18:49.863Z,6.59
2023-02-14T04:19:50.512Z,6.56
2023-02-14T04:20:51.225Z,6.55
2023-02-14T04:21:51.960Z,6.55
2023-02-14T04:22:52.637Z,6.55
2023-02-14T04:23:53.345Z,6.52
2023-02-14T04:24:54.051Z,6.49
2023-02-14T04:25:55.106Z,6.46
2023-02-14T04:26:55.307Z,6.43
2023-02-14T04:27:56.016Z,6.40
2023-02-14T04:28:56.722Z,6.36
2023-02-14T04:29:57.492Z,6.31
2023-02-14T04:30:58.608Z,6.25
2023-02-14T04:31:59.075Z,6.19
2023-02-14T04:32:59.724Z,6.14
2023-02-14T04:34:00.447Z,6.11
2023-02-14T04:35:01.089Z,6.04
2023-02-14T04:36:01.821Z,6.01
2023-02-14T04:37:02.537Z,5.96
2023-02-14T04:38:03.223Z,5.96
2023-02-14T04:39:03.932Z,5.96
2023-02-14T04:40:04.743Z,5.99
2023-02-14T04:41:05.591Z,5.99
2023-02-14T04:42:06.298Z,6.01
2023-02-14T04:43:07.009Z,6.04
2023-02-14T04:44:07.716Z,6.06
2023-02-14T04:45:08.429Z,6.09
2023-02-14T04:46:09.636Z,6.12
2023-02-14T04:47:09.795Z,6.19
2023-02-14T04:48:10.505Z,6.22
2023-02-14T04:49:11.224Z,6.28
2023-02-14T04:50:11.894Z,6.30
2023-02-14T04:51:12.607Z,6.31
2023-02-14T04:52:13.337Z,6.33
2023-02-14T04:53:14.019Z,6.33
2023-02-14T04:54:14.723Z,6.31
2023-02-14T04:55:15.429Z,6.28
2023-02-14T04:56:16.157Z,6.25
2023-02-14T04:57:16.864Z,6.28
2023-02-14T04:58:17.631Z,6.27
2023-02-14T04:59:18.305Z,6.28
2023-02-14T05:00:19.005Z,6.28
2023-02-14T05:01:20.188Z,6.27
2023-02-14T05:02:20.458Z,6.25
2023-02-14T05:03:21.108Z,6.22
2023-02-14T05:04:21.835Z,6.25
2023-02-14T05:05:22.508Z,6.19
2023-02-14T05:06:23.230Z,6.15
2023-02-14T05:07:24.557Z,6.12
2023-02-14T05:08:24.727Z,6.09
2023-02-14T05:09:25.432Z,6.08
2023-02-14T05:10:26.138Z,6.08
2023-02-14T05:11:26.847Z,6.04
2023-02-14T05:12:27.556Z,6.04
2023-02-14T05:13:28.257Z,6.03
2023-02-14T05:14:28.963Z,6.00
2023-02-14T05:15:29.671Z,5.99
2023-02-14T05:16:30.656Z,5.97
2023-02-14T05:17:31.324Z,5.94
2023-02-14T05:18:32.027Z,5.96
2023-02-14T05:19:32.748Z,5.93
2023-02-14T05:20:33.384Z,5.93
2023-02-14T05:21:34.097Z,5.93
2023-02-14T05:22:34.820Z,5.93
2023-02-14T05:23:35.519Z,5.91
2023-02-14T05:24:36.211Z,5.90
2023-02-14T05:25:36.917Z,5.85
2023-02-14T05:26:37.638Z,5.81
2023-02-14T05:27:38.352Z,5.76
2023-02-14T05:28:39.052Z,5.68
2023-02-14T05:29:39.755Z,5.63
2023-02-14T05:30:40.650Z,5.58
2023-02-14T05:31:41.751Z,5.54
2023-02-14T05:32:41.909Z,5.48
2023-02-14T05:33:42.607Z,5.38
2023-02-14T05:34:43.337Z,5.30
2023-02-14T05:35:43.984Z,5.22
2023-02-14T05:36:45.101Z,5.15
2023-02-14T05:37:45.340Z,5.04
2023-02-14T05:38:46.015Z,5.02
2023-02-14T05:39:46.729Z,4.99
2023-02-14T05:40:47.422Z,4.96
2023-02-14T05:41:48.133Z,4.91
2023-02-14T05:42:48.851Z,4.86
2023-02-14T05:43:49.549Z,4.78
2023-02-14T05:44:50.246Z,4.80
2023-02-14T05:45:51.042Z,4.75
2023-02-14T05:46:51.710Z,4.73
2023-02-14T05:47:52.412Z,4.73
2023-02-14T05:48:53.126Z,4.72
2023-02-14T05:49:53.870Z,4.69
2023-02-14T05:50:54.496Z,4.67
2023-02-14T05:51:55.210Z,4.66
2023-02-14T05:52:55.944Z,4.60
2023-02-14T05:53:56.626Z,4.60
2023-02-14T05:54:57.331Z,4.58
2023-02-14T05:55:58.040Z,4.54
2023-02-14T05:56:58.759Z,4.55
2023-02-14T05:57:59.484Z,4.60
2023-02-14T05:59:00.184Z,4.63
2023-02-14T06:00:00.902Z,4.65
2023-02-14T06:01:01.920Z,4.70
2023-02-14T06:02:02.749Z,4.77
2023-02-14T06:03:02.913Z,4.78
2023-02-14T06:04:03.754Z,4.82
2023-02-14T06:05:04.508Z,4.88
2023-02-14T06:06:05.181Z,4.91
2023-02-14T06:07:05.900Z,4.94
2023-02-14T06:08:06.625Z,4.96
2023-02-14T06:09:07.330Z,4.97
2023-02-14T06:10:08.014Z,4.97
2023-02-14T06:11:08.725Z,5.00
2023-02-14T06:12:09.433Z,5.00
2023-02-14T06:13:10.137Z,4.99
2023-02-14T06:14:10.841Z,4.97
2023-02-14T06:15:11.548Z,4.94
2023-02-14T06:16:12.325Z,4.89
2023-02-14T06:17:13.111Z,4.89
2023-02-14T06:18:13.800Z,4.85
2023-02-14T06:19:14.514Z,4.82
2023-02-14T06:20:15.238Z,4.78
2023-02-14T06:21:15.884Z,4.75
2023-02-14T06:22:17.096Z,4.72
2023-02-14T06:23:17.332Z,4.67
2023-02-14T06:24:18.007Z,4.65
2023-02-14T06:25:18.716Z,4.65
2023-02-14T06:26:19.422Z,4.62
2023-02-14T06:27:20.154Z,4.60
2023-02-14T06:28:20.862Z,4.60
2023-02-14T06:29:21.604Z,4.59
2023-02-14T06:30:22.351Z,4.54
2023-02-14T06:31:23.175Z,4.52
2023-02-14T06:32:24.102Z,4.51
2023-02-14T06:33:24.803Z,4.52
2023-02-14T06:34:25.514Z,4.48
2023-02-14T06:35:26.236Z,4.47
2023-02-14T06:36:26.882Z,4.41
2023-02-14T06:37:27.611Z,4.41
2023-02-14T06:38:28.392Z,4.40
2023-02-14T06:39:29.021Z,4.37
2023-02-14T06:40:29.735Z,4.36
2023-02-14T06:41:30.464Z,4.34
2023-02-14T06:42:31.171Z,4.36
2023-02-14T06:43:31.876Z,4.37
2023-02-14T06:44:32.580Z,4.40
2023-02-14T06:45:33.304Z,4.42
2023-02-14T06:46:34.057Z,4.45
2023-02-14T06:47:35.382Z,4.45
2023-02-14T06:48:35.505Z,4.42
2023-02-14T06:49:36.210Z,4.44
2023-02-14T06:50:36.932Z,4.44
2023-02-14T06:51:37.573Z,4.45
2023-02-14T06:52:38.599Z,4.44
2023-02-14T06:53:38.828Z,4.45
2023-02-14T06:54:39.513Z,4.42
2023-02-14T06:55:41.453Z,4.44
2023-02-14T06:56:41.012Z,4.44
2023-02-14T06:57:41.732Z,4.47
2023-02-14T06:58:42.433Z,4.47
2023-02-14T06:59:43.134Z,4.47
2023-02-14T07:00:43.847Z,4.47
2023-02-14T07:01:44.624Z,4.50
2023-02-14T07:02:45.354Z,4.50
2023-02-14T07:03:46.043Z,4.52
2023-02-14T07:04:46.745Z,4.59
2023-02-14T07:05:47.470Z,4.62
2023-02-14T07:06:48.120Z,4.60
2023-02-14T07:07:48.833Z,4.66
2023-02-14T07:08:49.564Z,4.70
2023-02-14T07:09:50.477Z,4.72
2023-02-14T07:10:51.184Z,4.80
2023-02-14T07:11:51.890Z,4.88
2023-02-14T07:12:52.608Z,4.97
2023-02-14T07:13:53.312Z,5.04
2023-02-14T07:14:54.017Z,5.07
2023-02-14T07:15:54.744Z,5.12
2023-02-14T07:16:55.433Z,5.18
2023-02-14T07:17:56.144Z,5.22
2023-02-14T07:18:56.845Z,5.27
2023-02-14T07:19:57.553Z,5.31
2023-02-14T07:20:58.856Z,5.33
2023-02-14T07:21:59.100Z,5.38
2023-02-14T07:22:59.806Z,5.42
2023-02-14T07:24:00.530Z,5.46
2023-02-14T07:25:01.207Z,5.53
2023-02-14T07:26:01.915Z,5.58
2023-02-14T07:27:02.661Z,5.63
2023-02-14T07:28:03.600Z,5.68
2023-02-14T07:29:04.314Z,5.72
2023-02-14T07:30:05.108Z,5.75
2023-02-14T07:31:05.943Z,5.79
2023-02-14T07:32:06.800Z,5.85
2023-02-14T07:33:07.530Z,5.93
2023-02-14T07:34:08.235Z,5.99
2023-02-14T07:35:08.943Z,6.04
2023-02-14T07:36:09.672Z,6.08
2023-02-14T07:37:10.313Z,6.15
2023-02-14T07:38:11.032Z,6.19
2023-02-14T07:39:11.766Z,6.28
2023-02-14T07:40:14.986Z,6.30
2023-02-14T07:41:12.947Z,6.38
2023-02-14T07:42:13.676Z,6.44
2023-02-14T07:43:14.599Z,6.52
2023-02-14T07:44:15.305Z,6.56
2023-02-14T07:45:21.631Z,6.67
2023-02-14T07:46:17.765Z,6.76
2023-02-14T07:47:17.449Z,6.84
2023-02-14T07:48:18.602Z,6.91
2023-02-14T07:49:18.829Z,6.98
2023-02-14T07:50:19.530Z,7.06
2023-02-14T07:51:20.279Z,7.13
2023-02-14T07:52:20.992Z,7.21
2023-02-14T07:53:22.098Z,7.27
2023-02-14T07:54:22.329Z,7.32
2023-02-14T07:55:23.023Z,7.39
2023-02-14T07:56:23.743Z,7.46
2023-02-14T07:57:24.461Z,7.52
2023-02-14T07:58:25.610Z,7.58
2023-02-14T07:59:26.189Z,7.69
2023-02-14T08:00:26.381Z,7.77
2023-02-14T08:01:27.144Z,7.86
2023-02-14T08:02:27.800Z,7.93
2023-02-14T08:03:28.605Z,8.02
2023-02-14T08:04:29.741Z,8.10
2023-02-14T08:05:30.360Z,8.18
2023-02-14T08:06:31.068Z,8.25
2023-02-14T08:07:31.726Z,8.30
2023-02-14T08:08:32.623Z,8.34
2023-02-14T08:09:33.331Z,8.33
2023-02-14T08:10:34.016Z,8.38
2023-02-14T08:11:34.719Z,8.44
2023-02-14T08:12:35.427Z,8.50
2023-02-14T08:13:36.600Z,8.59
2023-02-14T08:14:36.804Z,8.65
2023-02-14T08:15:37.511Z,8.68
2023-02-14T08:16:38.220Z,8.73
2023-02-14T08:17:38.921Z,8.76
2023-02-14T08:18:40.119Z,8.81
2023-02-14T08:19:40.308Z,8.87
2023-02-14T08:20:41.090Z,8.94
2023-02-14T08:21:41.815Z,8.99
2023-02-14T08:22:42.531Z,9.13
2023-02-14T08:23:43.595Z,9.20
2023-02-14T08:24:43.847Z,9.28
2023-02-14T08:25:44.535Z,9.36
2023-02-14T08:26:45.238Z,9.40
2023-02-14T08:27:45.973Z,9.48
2023-02-14T08:28:46.691Z,9.51
2023-02-14T08:29:47.575Z,9.53
2023-02-14T08:30:48.243Z,9.54
2023-02-14T08:31:49.051Z,9.60
2023-02-14T08:32:49.857Z,9.65
2023-02-14T08:33:50.530Z,9.65
2023-02-14T08:34:51.017Z,9.64
2023-02-14T08:35:51.725Z,9.68
2023-02-14T08:36:52.457Z,9.74
2023-02-14T08:37:53.115Z,9.74
2023-02-14T08:38:54.110Z,9.81
2023-02-14T08:39:54.335Z,9.89
2023-02-14T08:40:55.023Z,9.93
2023-02-14T08:41:55.731Z,10.01
2023-02-14T08:42:56.449Z,10.08
2023-02-14T08:43:57.618Z,10.15
2023-02-14T08:44:57.814Z,10.25
2023-02-14T08:45:58.973Z,10.32
2023-02-14T08:46:59.400Z,10.38
2023-02-14T08:48:00.130Z,10.47
2023-02-14T08:49:01.176Z,10.55
2023-02-14T08:50:01.334Z,10.60
2023-02-14T08:51:02.295Z,10.64
2023-02-14T08:52:02.611Z,10.66
2023-02-14T08:53:03.309Z,10.66
2023-02-14T08:54:04.099Z,10.70
2023-02-14T08:55:04.830Z,10.76
2023-02-14T08:56:05.522Z,10.84
2023-02-14T08:57:06.261Z,10.89
2023-02-14T08:58:06.937Z,10.91
2023-02-14T08:59:08.103Z,10.86
2023-02-14T09:00:08.312Z,10.88
2023-02-14T09:01:09.093Z,10.88
2023-02-14T09:02:09.757Z,10.96
2023-02-14T09:03:10.503Z,11.04
2023-02-14T09:04:11.300Z,11.03
2023-02-14T09:05:12.018Z,11.04
2023-02-14T09:06:12.767Z,11.04
2023-02-14T09:07:13.479Z,11.21
2023-02-14T09:08:14.187Z,11.29
2023-02-14T09:09:14.834Z,11.36
2023-02-14T09:10:15.588Z,11.44
2023-02-14T09:11:16.250Z,11.64
2023-02-14T09:12:17.008Z,11.73
2023-02-14T09:13:17.657Z,11.85
2023-02-14T09:14:19.590Z,11.90
2023-02-14T09:15:19.335Z,12.04
2023-02-14T09:16:20.052Z,12.20
2023-02-14T09:17:20.723Z,12.35
2023-02-14T09:18:21.480Z,12.50
2023-02-14T09:19:22.625Z,12.62
2023-02-14T09:20:22.862Z,12.68
2023-02-14T09:21:23.644Z,12.82
2023-02-14T09:22:24.339Z,12.90
2023-02-14T09:23:24.988Z,13.00
2023-02-14T09:24:25.740Z,13.04
2023-02-14T09:25:26.484Z,13.03
2023-02-14T09:26:27.147Z,13.10
2023-02-14T09:27:27.869Z,13.25
2023-02-14T09:28:28.560Z,13.33
2023-02-14T09:29:29.606Z,13.41
2023-02-14T09:30:29.898Z,13.44
2023-02-14T09:31:30.670Z,13.52
2023-02-14T09:32:31.431Z,13.52
2023-02-14T09:33:32.143Z,13.52
2023-02-14T09:34:33.109Z,13.46
2023-02-14T09:35:33.808Z,13.42
2023-02-14T09:36:34.518Z,13.51
2023-02-14T09:37:35.278Z,13.57
2023-02-14T09:38:35.924Z,13.64
2023-02-14T09:39:36.650Z,13.70
2023-02-14T09:40:37.383Z,13.79
2023-02-14T09:41:38.063Z,13.85
2023-02-14T09:42:38.764Z,13.91
2023-02-14T09:43:39.469Z,13.75
2023-02-14T09:44:40.181Z,13.78
2023-02-14T09:45:40.978Z,13.73
2023-02-14T09:46:41.644Z,13.77
2023-02-14T09:47:42.350Z,13.78
2023-02-14T09:48:43.156Z,13.79
2023-02-14T09:49:44.309Z,13.73
2023-02-14T09:50:44.542Z,13.69
2023-02-14T09:51:45.251Z,13.75
2023-02-14T09:52:45.973Z,13.85
2023-02-14T09:53:46.637Z,13.88
2023-02-14T09:54:47.607Z,13.84
2023-02-14T09:55:47.967Z,13.97
2023-02-14T09:56:51.626Z,14.15
2023-02-14T09:57:49.202Z,14.22
2023-02-14T09:58:49.908Z,14.35
2023-02-14T09:59:51.114Z,14.46
2023-02-14T10:00:51.356Z,14.62
2023-02-14T10:01:52.167Z,14.83
2023-02-14T10:02:52.832Z,14.96
2023-02-14T10:03:53.543Z,15.07
2023-02-14T10:04:54.610Z,15.16
2023-02-14T10:05:54.819Z,15.23
2023-02-14T10:06:55.537Z,15.28
2023-02-14T10:07:56.260Z,15.34
2023-02-14T10:08:56.933Z,15.41
2023-02-14T10:09:57.646Z,15.57
2023-02-14T10:10:58.860Z,15.68
2023-02-14T10:11:59.144Z,15.74
2023-02-14T10:12:59.858Z,15.83
2023-02-14T10:14:00.564Z,15.84
2023-02-14T10:15:01.614Z,15.75
2023-02-14T10:16:01.820Z,15.86
2023-02-14T10:17:02.533Z,15.84
2023-02-14T10:18:03.241Z,15.94
2023-02-14T10:19:03.944Z,15.86
2023-02-14T10:20:05.113Z,15.83
2023-02-14T10:21:05.317Z,15.60
2023-02-14T10:22:06.024Z,15.64
2023-02-14T10:23:06.762Z,14.92
2023-02-14T10:24:07.394Z,14.40
2023-02-14T10:25:08.115Z,14.12
2023-02-14T10:26:08.859Z,14.07
2023-02-14T10:27:10.571Z,14.33
2023-02-14T10:28:10.201Z,14.62
2023-02-14T10:29:10.919Z,14.81
2023-02-14T10:30:12.203Z,14.96
2023-02-14T10:31:12.443Z,15.10
2023-02-14T10:32:13.179Z,15.34
2023-02-14T10:33:13.855Z,15.51
2023-02-14T10:34:14.562Z,15.69
2023-02-14T10:35:15.616Z,15.82
2023-02-14T10:36:15.825Z,16.02
2023-02-14T10:37:16.534Z,16.27
2023-02-14T10:38:17.269Z,16.46
2023-02-14T10:39:17.936Z,16.56
2023-02-14T10:40:19.133Z,16.34
2023-02-14T10:41:19.345Z,16.23
2023-02-14T10:42:20.080Z,16.12
2023-02-14T10:43:20.769Z,15.96
2023-02-14T10:44:21.499Z,15.89
2023-02-14T10:45:22.621Z,15.69
2023-02-14T10:46:22.881Z,15.50
2023-02-14T10:47:23.540Z,15.62
2023-02-14T10:48:24.247Z,15.97
2023-02-14T10:49:24.955Z,15.93
2023-02-14T10:50:26.122Z,15.89
2023-02-14T10:51:26.334Z,15.74
2023-02-14T10:52:27.042Z,15.69
2023-02-14T10:53:27.826Z,15.68
2023-02-14T10:54:28.485Z,15.96
2023-02-14T10:55:32.603Z,16.30
2023-02-14T10:56:29.919Z,16.38
2023-02-14T10:57:30.645Z,16.58
2023-02-14T10:58:31.330Z,16.41
2023-02-14T10:59:32.036Z,16.41
2023-02-14T11:00:33.125Z,16.52
2023-02-14T11:01:33.371Z,16.61
2023-02-14T11:02:34.060Z,16.96
2023-02-14T11:03:34.767Z,17.31
2023-02-14T11:04:35.475Z,17.68
2023-02-14T11:05:36.623Z,17.81
2023-02-14T11:06:36.834Z,18.00
2023-02-14T11:07:37.542Z,18.05
2023-02-14T11:08:38.267Z,17.95
2023-02-14T11:09:38.935Z,17.70
2023-02-14T11:10:40.140Z,17.49
2023-02-14T11:11:40.345Z,17.58
2023-02-14T11:12:41.063Z,17.79
2023-02-14T11:13:41.754Z,18.00
2023-02-14T11:14:42.464Z,18.07
2023-02-14T11:15:43.627Z,18.15
2023-02-14T11:16:43.923Z,18.27
2023-02-14T11:17:44.603Z,18.25
2023-02-14T11:18:45.307Z,18.20
2023-02-14T11:19:46.015Z,18.21
2023-02-14T11:20:47.127Z,18.05
2023-02-14T11:21:47.333Z,18.03
2023-02-14T11:22:48.040Z,18.26
2023-02-14T11:23:48.767Z,18.35
2023-02-14T11:24:49.587Z,18.50
2023-02-14T11:25:50.294Z,18.65
2023-02-14T11:26:50.999Z,18.73
2023-02-14T11:27:51.720Z,18.78
2023-02-14T11:28:52.414Z,18.90
2023-02-14T11:29:53.255Z,19.02
2023-02-14T11:30:54.036Z,18.95
2023-02-14T11:31:54.752Z,18.91
2023-02-14T11:32:55.483Z,19.06
2023-02-14T11:33:56.187Z,19.11
2023-02-14T11:34:57.020Z,19.14
2023-02-14T11:35:58.137Z,19.14
2023-02-14T11:36:58.340Z,19.36
2023-02-14T11:37:59.059Z,19.55
2023-02-14T11:38:59.773Z,19.58
2023-02-14T11:40:00.406Z,19.55
2023-02-14T11:41:01.474Z,19.44
2023-02-14T11:42:01.767Z,19.62
2023-02-14T11:43:15.182Z,19.91
2023-02-14T11:44:04.081Z,20.01
2023-02-14T11:45:03.781Z,20.21
2023-02-14T11:46:04.524Z,20.38
2023-02-14T11:47:06.164Z,20.58
2023-02-14T11:48:05.980Z,20.67
2023-02-14T11:49:06.682Z,20.73
2023-02-14T11:50:07.389Z,20.79
2023-02-14T11:51:08.138Z,19.77
2023-02-14T11:52:10.203Z,18.99
2023-02-14T11:53:09.544Z,18.99
2023-02-14T11:54:10.284Z,19.23
2023-02-14T11:55:10.962Z,19.21
2023-02-14T11:56:11.683Z,19.48
2023-02-14T11:57:12.383Z,19.84
2023-02-14T11:58:13.115Z,20.08
2023-02-14T11:59:13.812Z,20.38
2023-02-14T12:00:14.535Z,20.66
2023-02-14T12:01:15.646Z,20.87
2023-02-14T12:02:15.916Z,20.99
2023-02-14T12:03:16.578Z,20.91
2023-02-14T12:04:17.270Z,20.89
2023-02-14T12:05:17.978Z,20.98
2023-02-14T12:06:19.142Z,21.13
2023-02-14T12:07:19.358Z,20.98
2023-02-14T12:08:20.061Z,20.85
2023-02-14T12:09:20.948Z,20.69
2023-02-14T12:10:21.617Z,20.50
2023-02-14T12:11:22.644Z,20.55
2023-02-14T12:12:22.851Z,20.54
2023-02-14T12:13:23.582Z,20.62
2023-02-14T12:14:24.282Z,20.59
2023-02-14T12:15:25.052Z,20.50
2023-02-14T12:16:28.050Z,20.39
2023-02-14T12:17:26.457Z,20.24
2023-02-14T12:18:27.149Z,20.10
2023-02-14T12:19:27.854Z,19.95
2023-02-14T12:20:28.564Z,20.03
2023-02-14T12:21:29.648Z,20.11
2023-02-14T12:22:29.860Z,20.02
2023-02-14T12:23:30.560Z,19.65
2023-02-14T12:24:31.289Z,19.63
2023-02-14T12:25:31.925Z,19.48
2023-02-14T12:26:32.650Z,19.68
2023-02-14T12:27:35.582Z,19.86
2023-02-14T12:28:34.314Z,20.10
2023-02-14T12:29:34.998Z,20.32
2023-02-14T12:30:35.706Z,20.50
2023-02-14T12:31:36.758Z,20.69
2023-02-14T12:32:36.942Z,20.88
2023-02-14T12:33:37.647Z,21.06
2023-02-14T12:34:38.370Z,21.03
2023-02-14T12:35:39.060Z,21.10
2023-02-14T12:36:39.774Z,21.09
2023-02-14T12:37:40.505Z,20.99
2023-02-14T12:38:41.206Z,20.88
2023-02-14T12:39:41.918Z,20.80
2023-02-14T12:40:42.545Z,20.74
2023-02-14T12:41:43.661Z,20.72
2023-02-14T12:42:43.868Z,20.73
2023-02-14T12:43:44.599Z,20.52
2023-02-14T12:44:45.284Z,20.42
2023-02-14T12:45:48.043Z,20.31
2023-02-14T12:46:47.154Z,20.21
2023-02-14T12:47:47.857Z,20.01
2023-02-14T12:48:48.564Z,19.98
2023-02-14T12:49:49.269Z,19.92
2023-02-14T12:50:49.977Z,19.88
2023-02-14T12:51:51.153Z,19.58
2023-02-14T12:52:51.364Z,19.47
2023-02-14T12:53:52.077Z,19.47
2023-02-14T12:54:52.811Z,19.55
2023-02-14T12:55:53.504Z,19.62
2023-02-14T12:56:54.659Z,19.73
2023-02-14T12:57:54.866Z,19.71
2023-02-14T12:58:55.596Z,19.78
2023-02-14T12:59:56.283Z,19.87
2023-02-14T13:00:56.991Z,19.92
2023-02-14T13:01:58.199Z,19.78
2023-02-14T13:02:58.426Z,19.87
2023-02-14T13:03:59.097Z,20.08
2023-02-14T13:04:59.806Z,20.42
2023-02-14T13:06:00.555Z,20.52
2023-02-14T13:07:01.661Z,20.73
2023-02-14T13:08:01.873Z,20.79
2023-02-14T13:09:02.576Z,20.85
2023-02-14T13:10:03.309Z,21.13
2023-02-14T13:11:03.961Z,21.34
2023-02-14T13:12:05.167Z,21.29
2023-02-14T13:13:05.375Z,21.40
2023-02-14T13:14:06.097Z,21.09
2023-02-14T13:15:06.788Z,20.94
2023-02-14T13:16:07.583Z,21.04
2023-02-14T13:17:08.242Z,21.27
2023-02-14T13:18:08.948Z,21.38
2023-02-14T13:19:09.653Z,21.21